createdAt,value
2023-01-11T00:02:35.614Z,98065.00
2023-01-11T00:07:57.199Z,98061.00
2023-01-11T00:13:19.352Z,98042.00
2023-01-11T00:18:41.162Z,98037.00
2023-01-11T00:24:02.733Z,98034.00
2023-01-11T00:29:24.345Z,98028.00
2023-01-11T00:34:45.831Z,98017.00
2023-01-11T00:40:08.193Z,98022.00
2023-01-11T00:45:48.640Z,98011.00
2023-01-11T00:51:10.202Z,98006.00
2023-01-11T00:56:32.026Z,97999.00
2023-01-11T01:01:53.421Z,97991.00
2023-01-11T01:07:14.848Z,97992.00
2023-01-11T01:12:55.102Z,97985.00
2023-01-11T01:18:16.643Z,97986.00
2023-01-11T01:23:38.071Z,97976.00
2023-01-11T01:28:59.611Z,97976.00
2023-01-11T01:34:21.246Z,97965.00
2023-01-11T01:39:43.205Z,97959.00
2023-01-11T01:45:25.462Z,97954.00
2023-01-11T01:50:57.312Z,97952.00
2023-01-11T01:56:35.004Z,97949.00
2023-01-11T02:01:57.850Z,97953.00
2023-01-11T02:07:32.079Z,97937.00
2023-01-11T02:13:03.169Z,97927.00
2023-01-11T02:18:24.612Z,97931.00
2023-01-11T02:24:17.998Z,97925.00
2023-01-11T02:30:33.312Z,97909.00
2023-01-11T02:36:16.756Z,97920.00
2023-01-11T02:42:15.062Z,97920.00
2023-01-11T02:48:02.418Z,97899.00
2023-01-11T02:54:02.655Z,97888.00
2023-01-11T02:59:29.456Z,97884.00
2023-01-11T03:04:51.012Z,97870.00
2023-01-11T03:10:21.635Z,97864.00
2023-01-11T03:16:08.770Z,97853.00
2023-01-11T03:22:04.761Z,97851.00
2023-01-11T03:27:29.267Z,97859.00
2023-01-11T03:33:09.280Z,97851.00
2023-01-11T03:38:54.215Z,97843.00
2023-01-11T03:44:19.150Z,97822.00
2023-01-11T03:49:56.308Z,97824.00
2023-01-11T03:55:18.174Z,97813.00
2023-01-11T04:00:40.345Z,97809.00
2023-01-11T04:06:02.515Z,97791.00
2023-01-11T04:11:23.753Z,97787.00
2023-01-11T04:16:45.416Z,97776.00
2023-01-11T04:22:06.922Z,97798.00
2023-01-11T04:27:28.350Z,97790.00
2023-01-11T04:32:49.853Z,97786.00
2023-01-11T04:38:11.610Z,97789.00
2023-01-11T04:43:33.094Z,97780.00
2023-01-11T04:48:56.516Z,97782.00
2023-01-11T04:54:18.182Z,97796.00
2023-01-11T04:59:39.949Z,97790.00
2023-01-11T05:05:01.245Z,97781.00
2023-01-11T05:10:22.762Z,97782.00
2023-01-11T05:15:44.285Z,97767.00
2023-01-11T05:21:06.605Z,97770.00
2023-01-11T05:26:33.853Z,97769.00
2023-01-11T05:31:55.946Z,97770.00
2023-01-11T05:37:17.543Z,97770.00
2023-01-11T05:42:38.840Z,97770.00
2023-01-11T05:48:00.554Z,97758.00
2023-01-11T05:53:24.047Z,97753.00
2023-01-11T05:58:49.102Z,97751.00
2023-01-11T06:04:10.631Z,97737.00
2023-01-11T06:09:32.314Z,97738.00
2023-01-11T06:14:53.722Z,97748.00
2023-01-11T06:20:15.582Z,97736.00
2023-01-11T06:25:37.787Z,97741.00
2023-01-11T06:31:00.303Z,97731.00
2023-01-11T06:36:21.509Z,97726.00
2023-01-11T06:41:42.735Z,97729.00
2023-01-11T06:47:04.479Z,97712.00
2023-01-11T06:52:25.992Z,97729.00
2023-01-11T06:57:47.625Z,97737.00
2023-01-11T07:03:10.909Z,97744.00
2023-01-11T07:08:32.681Z,97747.00
2023-01-11T07:13:54.200Z,97747.00
2023-01-11T07:19:15.612Z,97735.00
2023-01-11T07:24:39.897Z,97731.00
2023-01-11T07:30:01.201Z,97718.00
2023-01-11T07:35:22.735Z,97730.00
2023-01-11T07:40:44.304Z,97731.00
2023-01-11T07:46:06.106Z,97734.00
2023-01-11T07:51:27.452Z,97737.00
2023-01-11T07:56:49.154Z,97724.00
2023-01-11T08:02:11.968Z,97728.00
2023-01-11T08:07:33.285Z,97716.00
2023-01-11T08:13:13.192Z,97716.00
2023-01-11T08:18:34.688Z,97722.00
2023-01-11T08:23:59.912Z,97724.00
2023-01-11T08:29:21.158Z,97707.00
2023-01-11T08:34:42.649Z,97710.00
2023-01-11T08:40:04.715Z,97716.00
2023-01-11T08:45:26.683Z,97729.00
2023-01-11T08:50:48.272Z,97721.00
2023-01-11T08:56:10.029Z,97715.00
2023-01-11T09:01:31.557Z,97709.00
2023-01-11T09:06:53.639Z,97700.00
2023-01-11T09:12:15.173Z,97695.00
2023-01-11T09:17:36.827Z,97688.00
2023-01-11T09:22:58.405Z,97690.00
2023-01-11T09:28:20.008Z,97685.00
2023-01-11T09:33:41.613Z,97666.00
2023-01-11T09:39:07.766Z,97680.00
2023-01-11T09:44:31.033Z,97675.00
2023-01-11T09:49:58.420Z,97688.00
2023-01-11T09:55:27.132Z,97678.00
2023-01-11T10:01:13.112Z,97666.00
2023-01-11T10:06:48.792Z,97662.00
2023-01-11T10:18:40.287Z,97660.00
2023-01-11T10:24:12.736Z,97664.00
2023-01-11T10:29:50.341Z,97643.00
2023-01-11T10:36:06.930Z,97647.00
2023-01-11T10:41:57.269Z,97641.00
2023-01-11T10:47:22.323Z,97642.00
2023-01-11T10:53:15.822Z,97635.00
2023-01-11T10:58:53.483Z,97633.00
2023-01-11T11:04:39.551Z,97629.00
2023-01-11T11:10:19.198Z,97617.00
2023-01-11T11:15:55.944Z,97616.00
2023-01-11T11:21:22.551Z,97611.00
2023-01-11T11:26:47.446Z,97612.00
2023-01-11T11:32:19.945Z,97609.00
2023-01-11T11:37:44.890Z,97596.00
2023-01-11T11:43:12.299Z,97585.00
2023-01-11T11:48:34.948Z,97583.00
2023-01-11T11:53:57.898Z,97577.00
2023-01-11T11:59:21.649Z,97561.00
2023-01-11T12:04:48.598Z,97568.00
2023-01-11T12:10:20.309Z,97567.00
2023-01-11T12:15:54.896Z,97562.00
2023-01-11T12:21:29.552Z,97573.00
2023-01-11T12:27:27.005Z,97567.00
2023-01-11T12:33:12.603Z,97568.00
2023-01-11T12:38:52.526Z,97564.00
2023-01-11T12:44:45.750Z,97563.00
2023-01-11T12:50:18.513Z,97556.00
2023-01-11T12:55:57.048Z,97552.00
2023-01-11T13:01:42.058Z,97559.00
2023-01-11T13:07:22.227Z,97561.00
2023-01-11T13:13:24.951Z,97554.00
2023-01-11T13:18:59.326Z,97565.00
2023-01-11T13:24:31.856Z,97555.00
2023-01-11T13:29:56.282Z,97554.00
2023-01-11T13:35:21.803Z,97557.00
2023-01-11T13:40:58.515Z,97569.00
2023-01-11T13:46:51.071Z,97560.00
2023-01-11T13:52:26.202Z,97571.00
2023-01-11T13:57:56.628Z,97568.00
2023-01-11T14:03:24.119Z,97571.00
2023-01-11T14:09:22.931Z,97567.00
2023-01-11T14:15:02.620Z,97570.00
2023-01-11T14:20:36.996Z,97591.00
2023-01-11T14:26:13.563Z,97583.00
2023-01-11T14:31:40.700Z,97593.00
2023-01-11T14:37:29.763Z,97597.00
2023-01-11T14:43:13.135Z,97608.00
2023-01-11T14:48:40.638Z,97609.00
2023-01-11T14:54:07.766Z,97596.00
2023-01-11T14:59:36.613Z,97601.00
2023-01-11T15:04:58.045Z,97625.00
2023-01-11T15:10:31.623Z,97614.00
2023-01-11T15:16:25.300Z,97616.00
2023-01-11T15:21:50.781Z,97621.00
2023-01-11T15:27:48.528Z,97617.00
2023-01-11T15:33:19.076Z,97630.00
2023-01-11T15:39:05.619Z,97631.00
2023-01-11T15:44:40.500Z,97632.00
2023-01-11T15:50:27.163Z,97637.00
2023-01-11T15:56:07.241Z,97640.00
2023-01-11T16:01:29.747Z,97654.00
2023-01-11T16:06:57.084Z,97664.00
2023-01-11T16:12:24.374Z,97659.00
2023-01-11T16:17:47.767Z,97664.00
2023-01-11T16:23:15.464Z,97674.00
2023-01-11T16:28:37.577Z,97686.00
2023-01-11T16:34:07.321Z,97683.00
2023-01-11T16:39:33.249Z,97688.00
2023-01-11T16:45:04.251Z,97700.00
2023-01-11T16:50:26.030Z,97696.00
2023-01-11T16:56:03.041Z,97714.00
2023-01-11T17:01:24.454Z,97713.00
2023-01-11T17:06:46.021Z,97730.00
2023-01-11T17:12:08.384Z,97727.00
2023-01-11T17:17:36.661Z,97729.00
2023-01-11T17:22:59.234Z,97751.00
2023-01-11T17:28:20.929Z,97754.00
2023-01-11T17:33:42.577Z,97753.00
2023-01-11T17:39:05.682Z,97767.00
2023-01-11T17:44:45.462Z,97757.00
2023-01-11T17:50:17.856Z,97756.00
2023-01-11T17:55:56.791Z,97765.00
2023-01-11T18:01:23.418Z,97766.00
2023-01-11T18:06:45.692Z,97758.00
2023-01-11T18:12:07.294Z,97769.00
2023-01-11T18:17:36.582Z,97773.00
2023-01-11T18:23:05.217Z,97774.00
2023-01-11T18:28:36.613Z,97778.00
2023-01-11T18:33:58.465Z,97786.00
2023-01-11T18:39:19.992Z,97803.00
2023-01-11T18:44:43.633Z,97810.00
2023-01-11T18:50:05.558Z,97819.00
2023-01-11T18:55:28.015Z,97836.00
2023-01-11T19:00:49.346Z,97836.00
2023-01-11T19:06:13.340Z,97827.00
2023-01-11T19:11:34.655Z,97845.00
2023-01-11T19:16:56.194Z,97851.00
2023-01-11T19:22:17.761Z,97848.00
2023-01-11T19:27:39.295Z,97862.00
2023-01-11T19:33:00.855Z,97865.00
2023-01-11T19:38:22.457Z,97875.00
2023-01-11T19:43:47.302Z,97885.00
2023-01-11T19:49:08.844Z,97893.00
2023-01-11T19:54:30.450Z,97887.00
2023-01-11T19:59:51.977Z,97897.00
2023-01-11T20:05:13.739Z,97902.00
2023-01-11T20:10:35.256Z,97913.00
2023-01-11T20:15:56.690Z,97919.00
2023-01-11T20:21:18.416Z,97939.00
2023-01-11T20:26:40.544Z,97933.00
2023-01-11T20:32:21.156Z,97966.00
2023-01-11T20:37:44.751Z,97965.00
2023-01-11T20:43:06.286Z,97963.00
2023-01-11T20:48:28.315Z,97980.00
2023-01-11T20:53:49.587Z,97989.00
2023-01-11T21:04:31.377Z,97998.00
2023-01-11T21:09:53.052Z,97991.00
2023-01-11T21:15:14.365Z,97993.00
2023-01-11T21:20:36.044Z,97990.00
2023-01-11T21:25:57.412Z,97989.00
2023-01-11T21:31:21.353Z,98004.00
2023-01-11T21:36:44.111Z,98009.00
2023-01-11T21:42:05.715Z,97999.00
2023-01-11T21:47:27.265Z,97999.00
2023-01-11T21:52:48.762Z,97984.00
2023-01-11T21:58:10.061Z,97992.00
2023-01-11T22:03:31.468Z,97990.00
2023-01-11T22:08:53.038Z,97989.00
2023-01-11T22:14:14.374Z,97988.00
2023-01-11T22:19:35.632Z,98010.00
2023-01-11T22:24:58.932Z,98018.00
2023-01-11T22:30:20.587Z,98017.00
2023-01-11T22:35:42.274Z,98031.00
2023-01-11T22:41:03.779Z,98030.00
2023-01-11T22:46:27.067Z,98015.00
2023-01-11T22:51:48.489Z,98031.00
2023-01-11T22:57:10.053Z,98036.00
2023-01-11T23:02:31.315Z,98031.00
2023-01-11T23:07:52.825Z,98017.00
2023-01-11T23:13:32.924Z,98024.00
2023-01-11T23:18:54.603Z,98032.00
2023-01-11T23:24:17.393Z,98033.00
2023-01-11T23:29:39.253Z,98027.00
2023-01-11T23:35:00.582Z,98025.00
2023-01-11T23:40:22.071Z,98030.00
2023-01-11T23:45:43.472Z,98021.00
2023-01-11T23:51:05.517Z,98024.00
2023-01-11T23:56:28.581Z,98021.00
